Time;durP1;ratioP1;P1;durP2;ratioP2;P2;SDS_P1;SDS_P2;PMS_P1;PMS_P2;Temp;Humidity;BMP_temperature;BMP_pressure;BME280_temperature;BME280_humidity;BME280_pressure;Samples;Min_cycle;Max_cycle;Signal;HPM_P1;HPM_P2
2021/06/02 00:02:08;;;;;;;;;;;;;;;17.80;46.95;100341.39;1816357;79;20208;-77
2021/06/02 00:04:37;;;;;;;;;;;;;;;17.75;47.37;100336.07;1782758;79;20479;-77
2021/06/02 00:07:06;;;;;;;;;;;;;;;17.72;47.53;100342.41;1776412;80;20176;-78
2021/06/02 00:09:32;;;;;;;;;;;;;;;17.70;47.82;100341.25;1776297;80;20484;-76
2021/06/02 00:12:03;;;;;;;;;;;;;;;17.71;47.97;100330.75;1775881;80;20490;-76
2021/06/02 00:14:30;;;;;;;;;;;;;;;17.71;48.15;100332.10;1776473;80;20160;-77
2021/06/02 00:16:57;;;;;;;;;;;;;;;17.72;48.16;100328.34;1776252;80;20183;-76
2021/06/02 00:19:24;;;;;;;;;;;;;;;17.74;48.32;100334.94;1776366;80;20486;-76
2021/06/02 00:21:52;;;;;;;;;;;;;;;17.74;48.54;100335.77;1777450;80;20132;-77
2021/06/02 00:24:19;;;;;;;;;;;;;;;17.77;48.61;100332.34;1756519;80;20168;-78
2021/06/02 00:26:45;;;;;;;;;;;;;;;17.78;48.54;100331.30;1778545;80;20132;-77
2021/06/02 00:29:12;;;;;;;;;;;;;;;17.77;48.49;100329.11;1777753;80;20160;-78
2021/06/02 00:31:42;;;;;;;;;;;;;;;17.73;48.54;100321.05;1777644;80;20161;-77
2021/06/02 00:34:09;;;;;;;;;;;;;;;17.70;48.69;100320.93;1778030;80;20199;-77
2021/06/02 00:36:35;;;;;;;;;;;;;;;17.72;48.73;100328.87;1778174;80;20234;-77
2021/06/02 00:39:02;;;;;;;;;;;;;;;17.70;48.66;100325.00;1777700;80;20137;-77
2021/06/02 00:41:29;;;;;;;;;;;;;;;17.70;49.01;100326.34;1777840;80;20223;-77
2021/06/02 00:43:55;;;;;;;;;;;;;;;17.78;48.73;100334.00;1756492;80;20433;-77
2021/06/02 00:46:22;;;;;;;;;;;;;;;17.72;48.79;100319.39;1777987;80;20426;-78
2021/06/02 00:48:50;;;;;;;;;;;;;;;17.70;48.93;100330.41;1777934;80;20484;-77
2021/06/02 00:51:18;;;;;;;;;;;;;;;17.70;48.98;100329.58;1801719;79;20185;-78
2021/06/02 00:53:44;;;;;;;;;;;;;;;17.68;49.17;100327.09;1809380;79;20170;-77
2021/06/02 00:56:10;;;;;;;;;;;;;;;17.70;49.29;100326.88;1809297;79;20178;-77
2021/06/02 00:58:38;;;;;;;;;;;;;;;17.66;49.20;100331.03;1809878;79;20158;-77
2021/06/02 01:01:04;;;;;;;;;;;;;;;17.59;49.57;100309.91;1809451;79;20154;-76
2021/06/02 01:03:30;;;;;;;;;;;;;;;17.54;49.65;100324.06;1809798;79;20305;-77
2021/06/02 01:05:56;;;;;;;;;;;;;;;17.52;49.72;100323.95;1787342;79;20134;-76
2021/06/02 01:08:22;;;;;;;;;;;;;;;17.49;49.96;100321.98;1809304;78;20156;-77
2021/06/02 01:10:50;;;;;;;;;;;;;;;17.49;50.28;100322.50;1807948;79;20160;-77
2021/06/02 01:13:17;;;;;;;;;;;;;;;17.50;50.41;100322.28;1808427;79;20175;-76
2021/06/02 01:15:44;;;;;;;;;;;;;;;17.47;50.32;100313.73;1808301;79;20159;-77
2021/06/02 01:18:12;;;;;;;;;;;;;;;17.47;50.52;100306.97;1809519;79;20150;-77
2021/06/02 01:20:38;;;;;;;;;;;;;;;17.47;50.62;100305.61;1809564;79;20212;-77
2021/06/02 01:23:07;;;;;;;;;;;;;;;17.49;50.69;100313.02;1809336;79;20146;-77
2021/06/02 01:25:35;;;;;;;;;;;;;;;17.54;50.74;100305.63;1809472;79;20094;-77
2021/06/02 01:28:02;;;;;;;;;;;;;;;17.57;50.53;100309.26;1809874;78;20205;-77
2021/06/02 01:30:29;;;;;;;;;;;;;;;17.54;50.56;100305.11;1809502;79;20122;-77
2021/06/02 01:33:02;;;;;;;;;;;;;;;17.56;50.57;100303.02;1809588;79;20142;-77
2021/06/02 01:36:03;;;;;;;;;;;;;;;17.56;50.55;100309.78;1800534;79;20159;-79
2021/06/02 01:38:47;;;;;;;;;;;;;;;17.53;50.55;100312.89;1810894;79;20139;-78
2021/06/02 01:41:34;;;;;;;;;;;;;;;17.54;50.58;100311.87;1809841;79;20428;-78
2021/06/02 01:44:13;;;;;;;;;;;;;;;17.54;50.67;100313.76;1786920;79;20189;-77
2021/06/02 01:47:00;;;;;;;;;;;;;;;17.53;50.78;100310.19;1809725;79;20478;-78
2021/06/02 01:49:42;;;;;;;;;;;;;;;17.53;50.79;100306.65;1782445;79;20166;-77
2021/06/02 01:52:36;;;;;;;;;;;;;;;17.51;50.83;100316.34;1809250;79;20396;-76
2021/06/02 01:55:26;;;;;;;;;;;;;;;17.47;50.90;100305.61;1809981;79;20078;-78
2021/06/02 01:58:06;;;;;;;;;;;;;;;17.47;51.03;100309.14;1809614;79;20155;-77
2021/06/02 02:01:05;;;;;;;;;;;;;;;17.47;51.19;100309.67;1809719;79;20163;-77
2021/06/02 02:04:08;;;;;;;;;;;;;;;17.47;51.27;100311.02;1773787;79;20182;-77
2021/06/02 02:06:55;;;;;;;;;;;;;;;17.49;51.40;100306.25;1808268;79;20475;-77
2021/06/02 02:09:29;;;;;;;;;;;;;;;17.47;51.53;100321.86;1807979;79;20190;-78
2021/06/02 02:12:17;;;;;;;;;;;;;;;17.43;51.68;100307.89;1809505;79;20142;-78
2021/06/02 02:14:54;;;;;;;;;;;;;;;17.41;51.78;100311.34;1809363;79;20425;-77
2021/06/02 02:17:55;;;;;;;;;;;;;;;17.39;51.81;100324.23;1808625;79;20170;-77
2021/06/02 02:20:43;;;;;;;;;;;;;;;17.35;51.96;100323.50;1809366;79;20151;-77
2021/06/02 02:23:16;;;;;;;;;;;;;;;17.44;51.90;100323.12;1810541;79;20102;-78
2021/06/02 02:25:49;;;;;;;;;;;;;;;17.43;51.89;100329.55;1810229;79;20135;-79
2021/06/02 02:28:25;;;;;;;;;;;;;;;17.43;52.05;100331.43;1810657;79;20138;-79
2021/06/02 02:31:23;;;;;;;;;;;;;;;17.44;52.15;100316.35;1788853;79;20117;-79
2021/06/02 02:34:08;;;;;;;;;;;;;;;17.48;52.08;100319.45;1780911;79;20142;-78
2021/06/02 02:36:42;;;;;;;;;;;;;;;17.50;52.03;100310.63;1777013;79;20517;-77
2021/06/02 02:39:27;;;;;;;;;;;;;;;17.46;51.94;100322.38;1767218;81;20168;-78
2021/06/02 02:42:08;;;;;;;;;;;;;;;17.45;52.06;100319.37;1740613;81;20474;-77
2021/06/02 02:45:11;;;;;;;;;;;;;;;17.48;52.11;100318.10;1762395;81;20197;-77
2021/06/02 02:47:45;;;;;;;;;;;;;;;17.49;52.09;100313.02;1761810;81;20142;-76
2021/06/02 02:50:18;;;;;;;;;;;;;;;17.49;52.06;100313.86;1762344;80;20164;-77
2021/06/02 02:52:53;;;;;;;;;;;;;;;17.50;52.03;100314.16;1763393;80;20130;-77
2021/06/02 02:55:22;;;;;;;;;;;;;;;17.47;51.98;100317.27;1759974;81;20145;-77
2021/06/02 02:58:02;;;;;;;;;;;;;;;17.46;52.05;100303.42;1763951;80;20170;-78
2021/06/02 03:00:38;;;;;;;;;;;;;;;17.44;51.95;100311.43;1762136;80;20169;-76
2021/06/02 03:03:21;;;;;;;;;;;;;;;17.43;52.01;100320.60;1762117;81;20180;-77
2021/06/02 03:06:05;;;;;;;;;;;;;;;17.44;52.11;100319.55;1738752;81;20207;-77
2021/06/02 03:08:38;;;;;;;;;;;;;;;17.43;52.14;100320.60;1761998;80;20176;-76
2021/06/02 03:11:28;;;;;;;;;;;;;;;17.42;52.15;100317.06;1766774;79;20403;-77
2021/06/02 03:14:07;;;;;;;;;;;;;;;17.44;52.13;100326.32;1754381;80;20142;-78
2021/06/02 03:16:37;;;;;;;;;;;;;;;17.44;52.21;100326.32;1802669;79;20169;-77
2021/06/02 03:19:08;;;;;;;;;;;;;;;17.44;52.28;100329.03;1802607;79;20597;-76
2021/06/02 03:21:50;;;;;;;;;;;;;;;17.45;52.39;100323.42;1802368;79;20194;-76
2021/06/02 03:24:32;;;;;;;;;;;;;;;17.51;52.37;100325.82;1802639;79;20170;-76
2021/06/02 03:27:11;;;;;;;;;;;;;;;17.53;52.13;100318.31;1802761;79;20483;-76
2021/06/02 03:29:47;;;;;;;;;;;;;;;17.52;52.25;100328.01;1802209;79;20170;-76
2021/06/02 03:32:35;;;;;;;;;;;;;;;17.50;52.23;100323.64;1804265;79;20159;-77
2021/06/02 03:35:20;;;;;;;;;;;;;;;17.53;52.33;100320.19;1804744;79;20158;-77
2021/06/02 03:38:10;;;;;;;;;;;;;;;17.54;52.29;100320.53;1804467;79;20139;-77
2021/06/02 03:41:13;;;;;;;;;;;;;;;17.55;52.34;100321.66;1726358;82;20216;-77
2021/06/02 03:43:52;;;;;;;;;;;;;;;17.59;52.38;100325.63;1723386;83;20480;-77
2021/06/02 03:46:36;;;;;;;;;;;;;;;17.63;52.30;100317.92;1781351;79;20189;-77
2021/06/02 03:49:16;;;;;;;;;;;;;;;17.63;52.22;100315.22;1776245;79;20177;-78
2021/06/02 03:51:45;;;;;;;;;;;;;;;17.61;52.33;100307.80;1799840;79;20146;-78
2021/06/02 03:54:35;;;;;;;;;;;;;;;17.61;52.33;100311.34;1798125;79;20154;-80
2021/06/02 03:57:07;;;;;;;;;;;;;;;17.63;52.35;100315.22;1789588;79;20136;-79
2021/06/02 03:59:42;;;;;;;;;;;;;;;17.66;52.33;100306.66;1799913;79;20226;-79
2021/06/02 04:02:13;;;;;;;;;;;;;;;17.68;52.23;100312.72;1738292;80;20238;-79
2021/06/02 04:05:13;;;;;;;;;;;;;;;17.70;52.23;100308.73;1798718;79;20634;-79
2021/06/02 04:08:02;;;;;;;;;;;;;;;17.73;52.17;100315.63;1812755;78;20341;-79
2021/06/02 04:10:48;;;;;;;;;;;;;;;17.73;52.22;100312.43;1848373;77;20187;-80
2021/06/02 04:13:33;;;;;;;;;;;;;;;17.74;52.20;100311.37;1846928;76;20187;-78
2021/06/02 04:16:09;;;;;;;;;;;;;;;17.77;52.22;100305.25;1834754;77;20142;-78
2021/06/02 04:18:36;;;;;;;;;;;;;;;17.75;52.18;100300.84;1839114;77;20120;-79
2021/06/02 04:21:04;;;;;;;;;;;;;;;17.77;52.25;100304.72;1851642;77;20159;-79
2021/06/02 04:23:31;;;;;;;;;;;;;;;17.80;52.30;100302.10;1852660;77;20174;-78
2021/06/02 04:25:57;;;;;;;;;;;;;;;17.79;52.27;100303.98;1850146;77;20112;-79
2021/06/02 04:28:23;;;;;;;;;;;;;;;17.79;52.34;100301.80;1832844;77;20298;-78
2021/06/02 04:30:49;;;;;;;;;;;;;;;17.80;52.29;100308.88;1836323;76;20161;-78
2021/06/02 04:33:18;;;;;;;;;;;;;;;17.77;52.29;100298.48;1875669;76;20145;-78
2021/06/02 04:35:48;;;;;;;;;;;;;;;17.72;52.29;100309.38;1854053;76;20149;-78
2021/06/02 04:38:17;;;;;;;;;;;;;;;17.71;52.42;100313.14;1851068;76;20145;-79
2021/06/02 04:40:44;;;;;;;;;;;;;;;17.74;52.48;100306.48;1831790;76;20163;-79
2021/06/02 04:43:09;;;;;;;;;;;;;;;17.95;52.03;100310.86;1836890;77;20167;-80
2021/06/02 04:45:36;;;;;;;;;;;;;;;18.22;51.39;100308.95;1806593;76;20220;-78
2021/06/02 04:48:04;;;;;;;;;;;;;;;18.28;51.24;100316.23;1841219;77;20185;-79
2021/06/02 04:50:34;;;;;;;;;;;;;;;18.28;51.22;100312.16;1839831;77;20098;-80
2021/06/02 04:53:33;;;;;;;;;;;;;;;17.82;52.31;100302.75;1835144;77;20143;-80
2021/06/02 04:56:11;;;;;;;;;;;;;;;17.75;52.65;100306.80;1843908;77;20148;-79
2021/06/02 04:59:01;;;;;;;;;;;;;;;17.72;52.75;100301.26;1824272;76;20364;-81
2021/06/02 05:02:00;;;;;;;;;;;;;;;17.73;52.89;100307.50;1836889;76;20209;-78
2021/06/02 05:04:53;;;;;;;;;;;;;;;17.68;53.00;100302.71;1835137;76;20722;-77
2021/06/02 05:07:23;;;;;;;;;;;;;;;17.68;53.12;100298.65;1838114;76;20167;-78
2021/06/02 05:10:18;;;;;;;;;;;;;;;17.66;53.13;100311.55;1832536;77;20096;-79
2021/06/02 05:13:11;;;;;;;;;;;;;;;17.64;53.31;100298.75;1825590;77;20148;-78
2021/06/02 05:15:47;;;;;;;;;;;;;;;17.64;53.41;100298.75;1828981;76;20510;-78
2021/06/02 05:18:27;;;;;;;;;;;;;;;17.62;53.34;100303.55;1836194;76;20136;-78
2021/06/02 05:24:23;;;;;;;;;;;;;;;17.63;53.46;100303.86;1840055;76;20143;-78
2021/06/02 05:27:30;;;;;;;;;;;;;;;17.60;53.56;100301.56;1830105;76;20172;-76
2021/06/02 05:30:19;;;;;;;;;;;;;;;17.60;53.52;100298.02;1814115;76;20585;-76
2021/06/02 05:33:01;;;;;;;;;;;;;;;17.61;53.54;100295.09;1826743;76;20090;-77
2021/06/02 05:35:51;;;;;;;;;;;;;;;17.65;53.56;100302.29;1849313;76;20116;-77
2021/06/02 05:38:43;;;;;;;;;;;;;;;17.68;53.45;100301.36;1831827;76;20178;-77
2021/06/02 05:41:19;;;;;;;;;;;;;;;17.70;53.44;100303.33;1754099;80;20212;-78
2021/06/02 05:44:10;;;;;;;;;;;;;;;17.73;53.46;100305.66;1711969;80;20204;-78
2021/06/02 05:47:07;;;;;;;;;;;;;;;17.77;53.44;100310.67;1825544;76;20196;-77
2021/06/02 05:49:53;;;;;;;;;;;;;;;17.74;53.28;100311.37;1830489;76;20211;-79
2021/06/02 05:52:49;;;;;;;;;;;;;;;17.72;53.35;100309.38;1837826;76;20402;-78
2021/06/02 05:55:35;;;;;;;;;;;;;;;17.69;53.42;100305.73;1832004;75;20191;-78
2021/06/02 05:58:17;;;;;;;;;;;;;;;17.70;53.47;100304.67;1845249;76;20100;-78
2021/06/02 06:01:13;;;;;;;;;;;;;;;17.77;53.54;100320.98;1834352;76;20515;-78
2021/06/02 06:04:16;;;;;;;;;;;;;;;17.79;53.44;100313.47;1834998;75;20185;-79
2021/06/02 06:07:03;;;;;;;;;;;;;;;17.83;53.33;100322.02;1836737;76;20152;-79
2021/06/02 06:09:57;;;;;;;;;;;;;;;17.85;53.19;100325.33;1836139;77;20575;-79
2021/06/02 06:12:53;;;;;;;;;;;;;;;17.88;53.17;100324.41;1835969;76;20148;-78
2021/06/02 06:15:41;;;;;;;;;;;;;;;17.89;53.17;100325.23;1833253;76;20849;-78
2021/06/02 06:18:23;;;;;;;;;;;;;;;17.91;53.03;100321.81;1834521;77;20114;-78
2021/06/02 06:21:06;;;;;;;;;;;;;;;17.90;53.04;100308.78;1835779;76;20086;-78
2021/06/02 06:23:45;;;;;;;;;;;;;;;17.92;53.07;100322.11;1834563;77;20119;-78
2021/06/02 06:26:17;;;;;;;;;;;;;;;17.95;53.00;100327.12;1839001;77;20107;-80
2021/06/02 06:28:57;;;;;;;;;;;;;;;17.95;52.92;100332.02;1846419;76;20180;-77
2021/06/02 06:31:25;;;;;;;;;;;;;;;17.99;52.86;100332.44;1836624;77;20409;-78
2021/06/02 06:33:51;;;;;;;;;;;;;;;17.99;52.83;100337.86;1840545;76;20091;-79
2021/06/02 06:36:19;;;;;;;;;;;;;;;18.06;52.70;100344.09;1819450;77;20187;-79
2021/06/02 06:38:57;;;;;;;;;;;;;;;18.07;52.65;100353.05;1838924;75;20111;-79
2021/06/02 06:41:25;;;;;;;;;;;;;;;18.08;52.58;100339.84;1838246;75;20143;-78
2021/06/02 06:43:52;;;;;;;;;;;;;;;18.07;52.58;100343.04;1838788;75;20147;-78
2021/06/02 06:46:19;;;;;;;;;;;;;;;18.09;52.57;100342.33;1810943;76;20189;-79
2021/06/02 06:49:06;;;;;;;;;;;;;;;18.12;52.61;100339.20;1816646;77;20067;-77
2021/06/02 06:51:40;;;;;;;;;;;;;;;18.13;52.59;100342.75;1751520;79;20191;-78
2021/06/02 06:54:35;;;;;;;;;;;;;;;18.15;52.68;100344.71;1753914;79;20127;-77
2021/06/02 06:57:09;;;;;;;;;;;;;;;18.19;52.71;100343.25;1797091;78;20106;-78
2021/06/02 06:59:47;;;;;;;;;;;;;;;18.20;52.64;100338.13;1770018;78;20211;-77
2021/06/02 07:02:23;;;;;;;;;;;;;;;18.22;52.57;100345.55;1797444;78;20118;-78
2021/06/02 07:04:58;;;;;;;;;;;;;;;18.23;52.43;100342.62;1830328;76;20127;-78
2021/06/02 07:07:52;;;;;;;;;;;;;;;;;;;;;
2021/06/02 07:10:17;;;;;;;;;;;;;;;18.22;52.61;100336.89;1822712;77;20131;-78
2021/06/02 07:16:08;;;;;;;;;;;;;;;18.31;52.41;100333.96;1734700;76;20556;-79
2021/06/02 07:19:00;;;;;;;;;;;;;;;18.36;52.29;100338.22;1765715;77;20213;-80
2021/06/02 07:21:29;;;;;;;;;;;;;;;18.36;52.27;100336.87;1833368;76;20087;-80
2021/06/02 07:23:59;;;;;;;;;;;;;;;18.37;52.20;100333.94;1815632;76;20160;-79
2021/06/02 07:26:27;;;;;;;;;;;;;;;18.32;52.27;100343.23;1830553;76;20194;-78
2021/06/02 07:28:53;;;;;;;;;;;;;;;18.36;52.24;100347.72;1831067;75;20142;-79
2021/06/02 07:31:19;;;;;;;;;;;;;;;18.36;52.13;100346.36;1830938;75;20596;-79
2021/06/02 07:33:47;;;;;;;;;;;;;;;18.62;51.68;100345.44;1792414;78;20140;-78
2021/06/02 07:36:13;;;;;;;;;;;;;;;18.85;51.05;100351.75;1758052;80;20162;-81
2021/06/02 07:38:45;;;;;;;;;;;;;;;18.41;51.85;100356.88;1762534;79;20132;-78
2021/06/02 07:41:26;;;;;;;;;;;;;;;18.54;51.19;100354.66;1756227;79;20165;-76
2021/06/02 07:43:52;;;;;;;;;;;;;;;18.38;51.75;100349.67;1762188;79;20624;-77
2021/06/02 07:46:18;;;;;;;;;;;;;;;18.40;51.87;100344.89;1795603;77;20169;-77
2021/06/02 07:48:46;;;;;;;;;;;;;;;18.44;51.91;100342.04;1793494;77;20126;-77
2021/06/02 07:51:13;;;;;;;;;;;;;;;18.45;51.69;100332.36;1769000;79;20295;-78
2021/06/02 07:53:40;;;;;;;;;;;;;;;18.44;51.61;100347.46;1767691;80;20228;-77
2021/06/02 07:56:08;;;;;;;;;;;;;;;18.46;51.64;100347.58;1751230;79;20125;-77
2021/06/02 07:58:34;;;;;;;;;;;;;;;18.49;51.51;100351.75;1777933;78;20209;-77
2021/06/02 08:04:37;;;;;;;;;;;;;;;18.48;51.46;100355.48;1779512;78;20208;-79
2021/06/02 08:07:39;;;;;;;;;;;;;;;18.53;51.37;100354.85;1745708;78;20155;-77
2021/06/02 08:10:59;;;;;;;;;;;;;;;18.55;51.25;100353.61;1757973;80;20505;-79
2021/06/02 08:13:49;;;;;;;;;;;;;;;18.55;51.03;100364.98;1692045;82;20189;-79
2021/06/02 08:19:23;;;;;;;;;;;;;;;18.54;51.12;100369.58;1606913;85;20602;-79
2021/06/02 08:21:51;;;;;;;;;;;;;;;18.55;51.09;100386.16;1711760;80;20446;-77
2021/06/02 08:24:45;;;;;;;;;;;;;;;18.59;51.06;100377.91;1718892;81;20259;-80
2021/06/02 08:27:52;;;;;;;;;;;;;;;;;;;;;
2021/06/02 08:30:22;;;;;;;;;;;;;;;18.60;51.21;100385.52;1639481;85;20267;-78
2021/06/02 08:32:50;;;;;;;;;;;;;;;18.60;51.25;100388.23;1620577;82;20737;-78
2021/06/02 08:35:48;;;;;;;;;;;;;;;18.60;51.37;100397.20;1737902;79;20188;-78
2021/06/02 08:39:09;;;;;;;;;;;;;;;;;;;;;
2021/06/02 08:41:59;;;;;;;;;;;;;;;18.63;51.63;100400.02;1717941;79;20227;-79
2021/06/02 08:44:52;;;;;;;;;;;;;;;18.63;51.74;100395.95;1673852;82;20283;-79
2021/06/02 08:47:47;;;;;;;;;;;;;;;;;;;;;
2021/06/02 08:50:35;;;;;;;;;;;;;;;;;;;;;
2021/06/02 09:00:47;;;;;;;;;;;;;;;18.64;51.74;100398.97;1646480;85;20288;-76
2021/06/02 09:04:06;;;;;;;;;;;;;;;;;;;;;
2021/06/02 09:06:59;;;;;;;;;;;;;;;18.63;51.65;100412.23;1563657;90;20203;-77
2021/06/02 09:10:15;;;;;;;;;;;;;;;18.65;51.64;100412.84;1517416;93;20199;-76
2021/06/02 09:12:59;;;;;;;;;;;;;;;18.70;51.68;100413.06;1514784;90;20218;-76
2021/06/02 09:15:26;;;;;;;;;;;;;;;18.55;52.21;100411.92;1544050;90;20194;-78
2021/06/02 09:17:58;;;;;;;;;;;;;;;18.56;52.40;100412.23;1546330;90;20186;-78
2021/06/02 09:20:41;;;;;;;;;;;;;;;18.56;52.41;100401.38;1560665;89;20150;-77
2021/06/02 09:23:35;;;;;;;;;;;;;;;18.57;52.43;100403.56;1549652;88;20204;-77
2021/06/02 09:27:02;;;;;;;;;;;;;;;;;;;;;
2021/06/02 09:29:55;;;;;;;;;;;;;;;18.64;52.26;100404.40;1509570;92;20597;-76
2021/06/02 09:32:22;;;;;;;;;;;;;;;18.62;52.41;100403.27;1574199;89;20211;-76
2021/06/02 09:35:00;;;;;;;;;;;;;;;18.65;52.52;100408.25;1581300;88;20161;-79
2021/06/02 09:38:01;;;;;;;;;;;;;;;18.74;52.39;100411.07;1659356;83;20187;-78
2021/06/02 09:40:37;;;;;;;;;;;;;;;18.79;52.28;100404.17;1687474;83;20204;-78
2021/06/02 09:43:05;;;;;;;;;;;;;;;18.79;52.34;100402.30;1696584;81;20171;-78
2021/06/02 09:45:36;;;;;;;;;;;;;;;18.78;52.44;100406.06;1746080;80;20172;-78
2021/06/02 09:48:10;;;;;;;;;;;;;;;18.80;52.60;100409.91;1742315;80;20635;-77
2021/06/02 09:50:47;;;;;;;;;;;;;;;18.83;52.72;100413.03;1715485;80;20246;-77
2021/06/02 09:53:18;;;;;;;;;;;;;;;18.86;52.86;100411.78;1781699;77;20176;-77
2021/06/02 09:55:42;;;;;;;;;;;;;;;18.92;52.83;100410.92;1808873;77;20179;-78
2021/06/02 09:58:13;;;;;;;;;;;;;;;18.97;52.59;100407.87;1831211;76;20126;-77
2021/06/02 10:00:48;;;;;;;;;;;;;;;19.05;52.39;100404.62;1829855;77;20128;-77
2021/06/02 10:03:16;;;;;;;;;;;;;;;19.09;52.32;100410.76;1792615;77;20090;-78
2021/06/02 10:05:50;;;;;;;;;;;;;;;19.11;52.22;100414.08;1794576;78;20567;-77
2021/06/02 10:08:47;;;;;;;;;;;;;;;19.14;52.25;100410.11;1795119;77;20154;-77
2021/06/02 10:11:19;;;;;;;;;;;;;;;19.17;52.23;100422.73;1694203;82;20169;-76
2021/06/02 10:13:50;;;;;;;;;;;;;;;19.18;52.20;100427.11;1683253;83;20150;-76
2021/06/02 10:16:40;;;;;;;;;;;;;;;19.18;52.25;100427.64;1720720;79;20219;-78
2021/06/02 10:19:07;;;;;;;;;;;;;;;19.19;52.35;100430.13;1767079;78;20129;-77
2021/06/02 10:21:45;;;;;;;;;;;;;;;19.22;52.40;100436.50;1788144;78;20484;-77
2021/06/02 10:24:11;;;;;;;;;;;;;;;19.26;52.45;100431.48;1748348;80;20184;-77
2021/06/02 10:26:39;;;;;;;;;;;;;;;19.30;52.37;100435.93;1764088;78;21266;-76
2021/06/02 10:29:06;;;;;;;;;;;;;;;19.33;52.42;100440.41;1739911;79;20119;-77
2021/06/02 10:31:33;;;;;;;;;;;;;;;19.36;52.53;100437.27;1761546;78;20140;-76
2021/06/02 10:33:59;;;;;;;;;;;;;;;19.42;52.49;100440.47;1765086;78;20585;-77
2021/06/02 10:36:27;;;;;;;;;;;;;;;19.49;52.31;100437.21;1760538;79;20226;-78
2021/06/02 10:38:55;;;;;;;;;;;;;;;19.52;52.26;100442.19;1734539;80;20212;-77
2021/06/02 10:41:32;;;;;;;;;;;;;;;19.56;52.28;100441.23;1765138;78;20235;-77
2021/06/02 10:44:02;;;;;;;;;;;;;;;19.58;52.29;100439.68;1760178;80;20641;-77
2021/06/02 10:46:28;;;;;;;;;;;;;;;19.60;52.28;100436.20;1761654;79;20210;-76
2021/06/02 10:48:56;;;;;;;;;;;;;;;19.60;52.28;100441.64;1735900;79;20724;-76
2021/06/02 10:51:33;;;;;;;;;;;;;;;19.59;52.15;100442.17;1762351;78;20176;-77
2021/06/02 10:54:06;;;;;;;;;;;;;;;19.59;52.27;100443.53;1766100;78;20146;-77
2021/06/02 10:56:35;;;;;;;;;;;;;;;19.60;52.22;100437.06;1764706;78;20104;-77
2021/06/02 10:59:02;;;;;;;;;;;;;;;19.63;52.26;100446.69;1769544;80;20098;-77
2021/06/02 11:01:30;;;;;;;;;;;;;;;19.67;52.39;100439.23;1771028;78;20172;-77
2021/06/02 11:04:09;;;;;;;;;;;;;;;19.68;52.49;100440.89;1769711;78;20168;-76
2021/06/02 11:06:42;;;;;;;;;;;;;;;19.70;52.56;100447.45;1768117;78;20176;-76
2021/06/02 11:09:11;;;;;;;;;;;;;;;19.70;52.60;100440.66;1768792;79;20170;-77
2021/06/02 11:11:41;;;;;;;;;;;;;;;19.66;52.60;100449.77;1766041;80;20502;-76
2021/06/02 11:14:20;;;;;;;;;;;;;;;19.66;52.76;100441.62;1772602;79;20157;-76
2021/06/02 11:16:57;;;;;;;;;;;;;;;19.68;52.81;100453.13;1764683;79;20085;-77
2021/06/02 11:19:26;;;;;;;;;;;;;;;19.64;52.96;100438.30;1763560;79;20129;-78
2021/06/02 11:21:56;;;;;;;;;;;;;;;19.66;53.06;100441.62;1767813;78;20133;-78
2021/06/02 11:24:40;;;;;;;;;;;;;;;19.69;52.97;100440.36;1769862;79;20153;-78
2021/06/02 11:27:15;;;;;;;;;;;;;;;19.71;52.93;100444.55;1764415;78;20185;-78
2021/06/02 11:30:06;;;;;;;;;;;;;;;;;;;;;
2021/06/02 11:32:31;;;;;;;;;;;;;;;19.78;52.88;100450.45;1752562;79;20156;-78
2021/06/02 11:35:05;;;;;;;;;;;;;;;19.84;52.58;100457.19;1790897;78;20171;-79
2021/06/02 11:37:34;;;;;;;;;;;;;;;19.84;52.73;100452.28;1793771;79;20184;-76
2021/06/02 11:42:56;;;;;;;;;;;;;;;19.88;53.06;100444.83;1673483;80;20810;-79
2021/06/02 11:45:22;;;;;;;;;;;;;;;19.83;53.30;100449.27;1749946;80;20128;-77
2021/06/02 11:47:51;;;;;;;;;;;;;;;19.81;53.67;100451.38;1767631;80;20128;-77
2021/06/02 11:50:22;;;;;;;;;;;;;;;19.83;53.91;100450.63;1766721;80;20123;-79
2021/06/02 11:52:56;;;;;;;;;;;;;;;19.87;53.95;100460.02;1767867;80;20156;-77
2021/06/02 11:55:23;;;;;;;;;;;;;;;19.88;54.11;100446.72;1766444;79;20164;-77
2021/06/02 11:57:51;;;;;;;;;;;;;;;19.90;54.19;100456.33;1770216;78;20108;-78
2021/06/02 12:00:25;;;;;;;;;;;;;;;19.94;54.22;100455.34;1766755;79;20451;-77
2021/06/02 12:02:52;;;;;;;;;;;;;;;19.93;54.32;100451.80;1771697;80;20132;-77
2021/06/02 12:05:22;;;;;;;;;;;;;;;19.91;54.30;100451.73;1741121;80;20100;-76
2021/06/02 12:07:56;;;;;;;;;;;;;;;19.88;54.42;100454.88;1752411;80;20116;-79
2021/06/02 12:10:42;;;;;;;;;;;;;;;19.91;54.54;100451.20;1765939;80;20450;-76
2021/06/02 12:13:19;;;;;;;;;;;;;;;19.90;54.75;100452.26;1765251;80;20121;-78
2021/06/02 12:15:56;;;;;;;;;;;;;;;19.92;54.76;100456.11;1769576;80;20091;-76
2021/06/02 12:18:37;;;;;;;;;;;;;;;19.96;54.67;100457.33;1773121;79;20365;-76
2021/06/02 12:21:22;;;;;;;;;;;;;;;19.90;54.95;100460.41;1767623;80;20329;-76
2021/06/02 12:24:13;;;;;;;;;;;;;;;19.92;55.09;100460.19;1766906;80;20541;-78
2021/06/02 12:26:44;;;;;;;;;;;;;;;19.94;55.08;100470.30;1769316;79;20106;-76
2021/06/02 12:29:16;;;;;;;;;;;;;;;19.91;55.15;100459.35;1836853;77;20622;-76
2021/06/02 12:31:51;;;;;;;;;;;;;;;19.92;55.17;100466.98;1836484;76;20632;-75
2021/06/02 12:34:20;;;;;;;;;;;;;;;19.96;55.26;100467.68;1832081;77;20116;-74
2021/06/02 12:37:01;;;;;;;;;;;;;;;19.99;55.19;100475.41;1838517;76;20233;-75
2021/06/02 12:39:30;;;;;;;;;;;;;;;19.97;55.17;100469.87;1838992;77;20191;-76
2021/06/02 12:42:01;;;;;;;;;;;;;;;19.98;55.27;100474.25;1838213;77;20780;-75
2021/06/02 12:44:32;;;;;;;;;;;;;;;19.98;55.33;100472.39;1835190;75;20096;-73
2021/06/02 12:47:01;;;;;;;;;;;;;;;19.99;55.37;100476.77;1834179;76;20076;-77
2021/06/02 12:49:33;;;;;;;;;;;;;;;20.02;55.40;100480.39;1834519;76;20132;-76
2021/06/02 12:52:17;;;;;;;;;;;;;;;20.05;55.38;100487.28;1811271;77;20096;-77
2021/06/02 12:54:33;;;;;;;;;;;;;;;20.04;55.42;100482.08;1830465;77;20092;-77
2021/06/02 12:57:00;;;;;;;;;;;;;;;20.06;55.41;100480.78;1830713;77;20095;-76
2021/06/02 12:59:31;;;;;;;;;;;;;;;20.10;55.44;100479.30;1838170;76;20126;-76
2021/06/02 13:02:02;;;;;;;;;;;;;;;20.16;55.32;100492.00;1833760;76;20151;-78
2021/06/02 13:04:31;;;;;;;;;;;;;;;20.20;55.25;100485.07;1827954;77;20163;-77
2021/06/02 13:06:58;;;;;;;;;;;;;;;20.22;55.26;100495.22;1839636;76;20136;-78
2021/06/02 13:09:24;;;;;;;;;;;;;;;20.26;55.26;100484.20;1836115;77;20139;-77
2021/06/02 13:11:51;;;;;;;;;;;;;;;20.30;55.22;100483.75;1816324;77;20126;-77
2021/06/02 13:14:17;;;;;;;;;;;;;;;20.33;55.24;100486.86;1813721;77;20091;-75
2021/06/02 13:17:17;;;;;;;;;;;;;;;;;;;;;
2021/06/02 13:19:41;;;;;;;;;;;;;;;20.41;55.09;100483.88;1805393;76;20166;-76
2021/06/02 13:22:21;;;;;;;;;;;;;;;20.44;55.09;100485.33;1847872;75;20152;-78
2021/06/02 13:24:49;;;;;;;;;;;;;;;20.50;54.98;100480.38;1836883;76;20210;-78
2021/06/02 13:27:19;;;;;;;;;;;;;;;20.57;54.95;100479.77;1837408;75;20197;-76
2021/06/02 13:30:07;;;;;;;;;;;;;;;20.61;54.90;100485.08;1806738;77;20221;-75
2021/06/02 13:32:33;;;;;;;;;;;;;;;20.63;54.82;100473.98;1828449;77;20167;-76
2021/06/02 13:35:16;;;;;;;;;;;;;;;20.67;54.69;100478.77;1826845;77;20184;-76
2021/06/02 13:37:50;;;;;;;;;;;;;;;20.71;54.56;100475.90;1833276;76;20287;-76
2021/06/02 13:40:23;;;;;;;;;;;;;;;20.75;54.40;100481.17;1825189;75;20164;-76
2021/06/02 13:43:14;;;;;;;;;;;;;;;;;;;;;
2021/06/02 13:45:47;;;;;;;;;;;;;;;20.83;54.28;100472.42;1835593;76;20458;-76
2021/06/02 13:48:36;;;;;;;;;;;;;;;20.88;54.31;100473.41;1817644;77;20182;-78
2021/06/02 13:51:12;;;;;;;;;;;;;;;20.92;54.26;100477.34;1831283;76;20812;-76
2021/06/02 13:54:16;;;;;;;;;;;;;;;20.99;54.39;100482.73;1827761;76;20222;-76
2021/06/02 13:57:06;;;;;;;;;;;;;;;21.01;54.36;100490.13;1839577;76;20192;-76
2021/06/02 13:59:43;;;;;;;;;;;;;;;21.04;54.34;100485.61;1833301;76;20186;-76
2021/06/02 14:02:21;;;;;;;;;;;;;;;21.08;54.54;100474.57;1829698;76;20171;-77
2021/06/02 14:05:07;;;;;;;;;;;;;;;21.15;54.41;100469.03;1828555;76;20335;-75